Time;durP1;ratioP1;P1;durP2;ratioP2;P2;SDS_P1;SDS_P2;PMS_P1;PMS_P2;Temp;Humidity;BMP_temperature;BMP_pressure;BME280_temperature;BME280_humidity;BME280_pressure;Samples;Min_cycle;Max_cycle;Signal;HPM_P1;HPM_P2
2022/09/28 00:01:08;;;;;;;;;;;7.00;99.90;;;;;;5072333;28;20395;-68
2022/09/28 00:03:35;;;;;;;2.80;1.70;;;6.90;99.90;;;;;;5071973;28;19916;-68
2022/09/28 00:06:06;;;;;;;6.13;1.83;;;7.00;99.90;;;;;;5072137;28;20551;-68
2022/09/28 00:08:33;;;;;;;3.10;1.73;;;6.90;99.90;;;;;;5071889;28;20142;-68
2022/09/28 00:11:00;;;;;;;2.55;1.55;;;6.90;99.90;;;;;;5072154;28;20115;-68
2022/09/28 00:13:27;;;;;;;2.90;1.40;;;7.70;99.90;;;;;;5071814;28;20434;-68
2022/09/28 00:16:04;;;;;;;3.03;1.63;;;6.90;99.90;;;;;;5072072;28;20049;-68
2022/09/28 00:18:31;;;;;;;2.67;1.73;;;6.90;99.90;;;;;;5071685;28;20044;-68
2022/09/28 00:21:21;;;;;;;1.60;1.40;;;7.10;99.90;;;;;;5053966;28;20076;-68
2022/09/28 00:26:34;;;;;;;2.50;1.52;;;6.80;99.90;;;;;;5053972;28;20059;-68
2022/09/28 00:29:01;;;;;;;3.13;1.35;;;6.80;99.90;;;;;;5071999;28;20044;-68
2022/09/28 00:31:31;;;;;;;3.03;1.50;;;6.70;99.90;;;;;;5053880;28;20495;-68
2022/09/28 00:33:59;;;;;;;2.15;1.33;;;6.80;99.90;;;;;;5071820;28;20116;-68
2022/09/28 00:36:27;;;;;;;2.22;1.40;;;6.70;99.90;;;;;;5053604;28;20123;-68
2022/09/28 00:38:55;;;;;;;2.45;1.80;;;6.70;99.90;;;;;;5071544;28;20047;-68
2022/09/28 00:41:22;;;;;;;2.38;1.70;;;6.70;99.90;;;;;;5071498;28;20074;-68
2022/09/28 00:43:48;;;;;;;1.67;1.30;;;6.70;99.90;;;;;;5071571;28;20051;-68
2022/09/28 00:46:34;;;;;;;5.15;1.65;;;6.70;99.90;;;;;;5071439;28;20044;-68
2022/09/28 00:49:10;;;;;;;1.98;1.42;;;6.70;99.90;;;;;;5071711;28;20115;-68
2022/09/28 00:51:37;;;;;;;1.92;1.48;;;6.70;99.90;;;;;;5056152;28;20127;-68
2022/09/28 00:54:06;;;;;;;3.00;1.60;;;6.70;99.90;;;;;;5075461;28;20074;-68
2022/09/28 00:56:35;;;;;;;3.40;1.63;;;6.60;99.90;;;;;;5057360;28;20044;-68
2022/09/28 00:59:03;;;;;;;2.78;1.70;;;6.70;99.90;;;;;;5075523;28;20041;-68
2022/09/28 01:01:30;;;;;;;8.05;1.73;;;6.60;99.90;;;;;;5075427;28;20170;-68
2022/09/28 01:03:57;;;;;;;3.10;1.90;;;6.60;99.90;;;;;;5057360;28;20044;-68
2022/09/28 01:06:32;;;;;;;2.97;1.77;;;6.90;99.90;;;;;;5075267;28;20048;-68
2022/09/28 01:09:01;;;;;;;3.03;1.50;;;6.60;99.90;;;;;;5075228;28;20044;-68
2022/09/28 01:11:32;;;;;;;3.97;1.60;;;6.30;99.90;;;;;;5057242;28;20387;-68
2022/09/28 01:13:58;;;;;;;2.25;1.58;;;6.60;99.90;;;;;;5074716;28;20068;-68
2022/09/28 01:16:39;;;;;;;3.35;1.90;;;6.50;99.90;;;;;;5075165;28;20051;-68
2022/09/28 01:19:16;;;;;;;1.60;1.48;;;6.80;99.90;;;;;;5056934;28;20442;-68
2022/09/28 01:22:30;;;;;;;2.40;1.58;;;6.50;99.90;;;;;;5075047;28;20086;-68
2022/09/28 01:25:37;;;;;;;3.55;1.75;;;6.50;99.90;;;;;;4998774;28;20049;-68
2022/09/28 01:28:13;;;;;;;3.20;1.85;;;6.50;99.90;;;;;;5074588;28;20047;-68
2022/09/28 01:31:08;;;;;;;2.20;1.70;;;6.50;99.90;;;;;;5074627;28;20041;-68
2022/09/28 01:33:45;;;;;;;3.13;1.80;;;6.40;99.90;;;;;;5074479;28;20067;-68
2022/09/28 01:36:22;;;;;;;3.10;1.80;;;6.40;99.90;;;;;;5074703;28;20032;-68
2022/09/28 01:38:59;;;;;;;2.17;1.55;;;6.40;99.90;;;;;;5056456;28;20082;-68
2022/09/28 01:41:30;;;;;;;3.55;1.73;;;6.40;99.90;;;;;;5074603;28;20032;-68
2022/09/28 01:44:01;;;;;;;5.45;1.92;;;6.80;99.90;;;;;;5056781;28;20048;-68
2022/09/28 01:46:41;;;;;;;2.95;1.80;;;6.40;99.90;;;;;;5074315;28;20487;-68
2022/09/28 01:49:23;;;;;;;4.45;2.35;;;6.30;99.90;;;;;;5056227;28;20032;-68
2022/09/28 01:51:54;;;;;;;3.25;2.10;;;6.30;99.90;;;;;;5074539;28;20075;-68
2022/09/28 01:54:27;;;;;;;2.67;1.63;;;6.20;99.90;;;;;;5074304;28;20036;-68
2022/09/28 01:56:58;;;;;;;2.47;1.77;;;6.30;99.90;;;;;;5056374;28;20126;-68
2022/09/28 01:59:33;;;;;;;3.45;2.08;;;6.30;99.90;;;;;;5073960;28;20047;-68
2022/09/28 02:02:08;;;;;;;2.90;1.90;;;6.20;99.90;;;;;;5054880;28;20068;-68
2022/09/28 02:04:44;;;;;;;3.08;1.52;;;6.20;99.90;;;;;;5056219;28;20049;-68
2022/09/28 02:07:15;;;;;;;2.60;1.67;;;6.20;99.90;;;;;;5074047;28;20044;-68
2022/09/28 02:09:46;;;;;;;3.20;1.60;;;6.30;99.90;;;;;;5073873;28;20048;-68
2022/09/28 02:12:21;;;;;;;3.10;1.55;;;6.30;99.90;;;;;;5074069;28;20044;-68
2022/09/28 02:14:49;;;;;;;3.50;1.95;;;6.30;99.90;;;;;;5073582;28;20057;-68
2022/09/28 02:17:15;;;;;;;3.95;2.08;;;6.30;99.90;;;;;;5073983;28;20480;-68
2022/09/28 02:19:42;;;;;;;2.92;2.10;;;6.50;99.90;;;;;;5056193;28;20032;-68
2022/09/28 02:22:21;;;;;;;3.03;1.90;;;6.40;99.90;;;;;;5073878;28;20040;-68
2022/09/28 02:25:17;;;;;;;3.35;2.15;;;6.40;99.90;;;;;;5073820;28;20498;-68
2022/09/28 02:28:05;;;;;;;6.35;2.20;;;6.40;99.90;;;;;;5073452;28;20051;-68
2022/09/28 02:30:35;;;;;;;3.92;2.55;;;6.50;99.90;;;;;;5055943;28;20045;-68
2022/09/28 02:33:15;;;;;;;10.15;2.45;;;6.40;99.90;;;;;;5073545;28;20044;-68
2022/09/28 02:35:42;;;;;;;7.00;3.67;;;6.60;99.90;;;;;;5073614;28;20032;-68
2022/09/28 02:38:10;;;;;;;4.20;2.63;;;6.80;99.90;;;;;;5073535;28;20365;-68
2022/09/28 02:40:36;;;;;;;3.63;2.55;;;6.70;99.90;;;;;;5073151;28;20120;-68
2022/09/28 02:43:40;;;;;;;6.40;3.83;;;6.60;99.90;;;;;;5073280;28;20051;-68
2022/09/28 02:46:41;;;;;;;7.82;3.78;;;6.70;99.90;;;;;;5055279;28;20049;-68
2022/09/28 02:49:16;;;;;;;5.93;3.83;;;6.80;99.90;;;;;;5055403;28;20048;-68
2022/09/28 02:51:52;;;;;;;9.23;4.18;;;6.90;99.90;;;;;;5055028;28;20044;-68
2022/09/28 02:54:57;;;;;;;10.45;4.95;;;7.00;99.90;;;;;;5055009;28;20048;-68
2022/09/28 02:57:41;;;;;;;19.75;5.00;;;7.10;99.90;;;;;;5055266;28;20467;-68
2022/09/28 03:00:16;;;;;;;11.55;5.35;;;7.10;99.90;;;;;;5072876;28;20431;-68
2022/09/28 03:02:44;;;;;;;22.20;5.72;;;7.50;99.90;;;;;;5073083;28;20043;-69
2022/09/28 03:05:21;;;;;;;8.48;4.70;;;7.30;99.90;;;;;;5072941;28;20040;-69
2022/09/28 03:08:20;;;;;;;7.13;4.43;;;7.40;99.90;;;;;;5072918;28;20058;-68
2022/09/28 03:10:58;;;;;;;14.80;5.03;;;7.40;99.90;;;;;;5059028;28;20045;-68
2022/09/28 03:13:25;;;;;;;7.25;4.40;;;;;;;;;;5072338;28;20472;-68
2022/09/28 03:15:51;;;;;;;12.18;4.20;;;;;;;;;;5072781;28;20048;-69
2022/09/28 03:18:17;;;;;;;7.35;4.30;;;;;;;;;;5054489;28;20097;-68
2022/09/28 03:20:43;;;;;;;6.32;3.92;;;;;;;;;;5072709;28;20082;-68
2022/09/28 03:23:09;;;;;;;14.25;3.72;;;;;;;;;;5072570;28;20048;-68
2022/09/28 03:25:35;;;;;;;16.63;4.57;;;;;;;;;;5072545;28;20063;-69
2022/09/28 03:28:01;;;;;;;5.25;3.53;;;;;;;;;;5072647;28;20040;-69
2022/09/28 03:30:28;;;;;;;11.40;3.45;;;;;;;;;;5054373;28;20076;-68
2022/09/28 03:33:01;;;;;;;12.23;4.07;;;;;;;;;;5054665;28;20123;-68
2022/09/28 03:35:27;;;;;;;13.38;4.10;;;;;;;;;;5072455;28;20052;-68
2022/09/28 03:37:56;;;;;;;18.98;3.85;;;;;;;;;;5072418;28;20051;-68
2022/09/28 03:40:22;;;;;;;14.82;4.38;;;;;;;;;;5072054;28;20086;-68
2022/09/28 03:42:48;;;;;;;9.95;4.05;;;;;;;;;;5072343;28;20388;-68
2022/09/28 03:45:14;;;;;;;4.68;3.20;;;;;;;;;;5072302;28;20037;-68
2022/09/28 03:47:44;;;;;;;17.73;4.53;;;;;;;;;;5072234;28;20391;-68
2022/09/28 03:50:10;;;;;;;7.20;3.58;;;;;;;;;;5071857;28;20051;-69
2022/09/28 03:52:37;;;;;;;14.13;3.78;;;;;;;;;;5072136;28;20033;-68
2022/09/28 03:55:03;;;;;;;16.27;3.60;;;;;;;;;;5037358;28;20050;-68
2022/09/28 03:57:29;;;;;;;10.98;3.55;;;;;;;;;;5054151;28;20508;-68
2022/09/28 03:59:55;;;;;;;8.60;3.50;;;;;;;;;;5071839;28;20121;-68
2022/09/28 04:02:21;;;;;;;16.08;4.03;;;;;;;;;;5072043;28;20123;-68
2022/09/28 04:04:47;;;;;;;11.25;3.72;;;;;;;;;;5072085;28;20040;-69
2022/09/28 04:07:13;;;;;;;13.52;3.38;;;;;;;;;;5071725;28;20047;-70
2022/09/28 04:09:39;;;;;;;14.75;3.38;;;;;;;;;;5071744;28;20078;-68
2022/09/28 04:12:05;;;;;;;7.28;3.80;;;;;;;;;;5071957;28;20418;-68
2022/09/28 04:14:31;;;;;;;6.47;3.70;;;;;;;;;;5071606;28;20569;-68
2022/09/28 04:16:58;;;;;;;6.97;3.80;;;;;;;;;;5071637;28;20101;-69
2022/09/28 04:19:24;;;;;;;13.75;3.60;;;;;;;;;;5053912;28;20508;-68
2022/09/28 04:21:50;;;;;;;14.40;3.00;;;;;;;;;;5071903;28;20475;-68
2022/09/28 04:24:17;;;;;;;22.33;4.00;;;;;;;;;;5071609;28;20127;-68
2022/09/28 04:26:43;;;;;;;9.40;3.20;;;;;;;;;;5074605;28;20052;-68
2022/09/28 04:29:16;;;;;;;5.28;3.03;;;;;;;;;;5075713;28;20044;-68
2022/09/28 04:31:52;;;;;;;5.88;3.10;;;7.40;99.90;;;;;;5057969;28;20123;-68
2022/09/28 04:34:20;;;;;;;15.05;3.72;;;7.30;99.90;;;;;;5058130;28;20040;-68
2022/09/28 04:36:46;;;;;;;9.85;2.83;;;7.30;99.90;;;;;;5075662;28;20455;-68
2022/09/28 04:39:13;;;;;;;13.45;3.30;;;;;;;;;;5057790;28;20119;-69
2022/09/28 04:41:40;;;;;;;12.25;3.30;;;;;;;;;;5057710;28;20127;-69
2022/09/28 04:44:06;;;;;;;8.48;2.88;;;7.10;99.90;;;;;;5075410;28;20048;-68
2022/09/28 04:46:32;;;;;;;21.20;3.45;;;7.30;99.90;;;;;;5075661;28;20049;-68
2022/09/28 04:48:58;;;;;;;4.30;2.03;;;7.20;99.90;;;;;;5075389;28;20119;-68
2022/09/28 04:51:23;;;;;;;12.73;3.38;;;7.50;99.90;;;;;;5075465;28;20514;-68
2022/09/28 04:53:50;;;;;;;8.27;3.17;;;;;;;;;;5075410;28;20472;-68
2022/09/28 04:56:17;;;;;;;9.95;2.65;;;7.00;99.90;;;;;;5075141;28;20044;-68
2022/09/28 04:58:43;;;;;;;11.40;3.33;;;7.60;99.90;;;;;;5075418;28;20444;-68
2022/09/28 05:01:15;;;;;;;5.53;3.47;;;7.20;99.90;;;;;;5075282;28;20036;-68
2022/09/28 05:03:41;;;;;;;10.18;2.97;;;7.50;99.90;;;;;;5075296;28;20445;-68
2022/09/28 05:06:07;;;;;;;16.85;3.03;;;7.00;99.90;;;;;;5057009;28;20160;-68
2022/09/28 05:08:34;;;;;;;4.88;3.28;;;7.00;99.90;;;;;;5057333;28;20449;-67
2022/09/28 05:11:03;;;;;;;12.52;2.95;;;7.20;99.90;;;;;;5056964;28;20048;-68
2022/09/28 05:13:29;;;;;;;4.38;2.65;;;6.90;99.90;;;;;;5074600;28;20036;-67
2022/09/28 05:15:56;;;;;;;12.35;3.10;;;7.70;99.90;;;;;;5074800;28;20123;-69
2022/09/28 05:18:23;;;;;;;4.43;3.05;;;7.30;99.90;;;;;;5075018;28;20454;-68
2022/09/28 05:20:49;;;;;;;11.93;2.70;;;7.10;99.90;;;;;;5056797;28;20047;-68
2022/09/28 05:23:15;;;;;;;7.82;3.00;;;7.80;99.90;;;;;;5074986;28;20480;-68
2022/09/28 05:25:41;;;;;;;10.25;2.33;;;7.10;99.90;;;;;;5074892;28;20094;-68
2022/09/28 05:28:07;;;;;;;7.25;2.50;;;;;;;;;;5074864;28;20044;-68
2022/09/28 05:30:34;;;;;;;3.22;2.03;;;7.10;99.90;;;;;;5056707;28;20055;-69
2022/09/28 05:33:00;;;;;;;10.15;2.50;;;7.40;99.90;;;;;;5074737;28;20411;-68
2022/09/28 05:35:26;;;;;;;8.65;2.33;;;6.70;99.90;;;;;;5039918;28;20052;-67
2022/09/28 05:37:53;;;;;;;3.30;2.00;;;;;;;;;;5056439;28;20047;-67
2022/09/28 05:40:19;;;;;;;2.83;1.95;;;6.80;99.90;;;;;;5074310;28;20052;-67
2022/09/28 05:42:45;;;;;;;8.45;2.10;;;;;;;;;;5074675;28;20562;-69
2022/09/28 05:45:12;;;;;;;4.13;2.10;;;;;;;;;;5074574;28;20048;-69
2022/09/28 05:47:42;;;;;;;11.43;2.10;;;;;;;;;;5056574;28;20055;-68
2022/09/28 05:50:10;;;;;;;13.85;2.17;;;;;;;;;;5056262;28;20127;-68
2022/09/28 05:52:37;;;;;;;4.95;1.77;;;6.50;99.90;;;;;;5074278;28;20438;-68
2022/09/28 05:55:04;;;;;;;9.10;2.17;;;6.80;99.90;;;;;;5074347;28;20585;-68
2022/09/28 05:57:30;;;;;;;18.30;2.20;;;6.60;99.90;;;;;;5074054;28;20065;-70
2022/09/28 05:59:56;;;;;;;6.97;1.58;;;6.80;99.90;;;;;;5074374;28;20041;-70
2022/09/28 06:02:22;;;;;;;13.95;2.30;;;6.50;99.90;;;;;;5056287;28;20399;-69
2022/09/28 06:04:49;;;;;;;16.98;2.20;;;6.60;99.90;;;;;;5074482;28;20045;-69
2022/09/28 06:07:16;;;;;;;2.53;1.45;;;7.20;99.90;;;;;;5056206;28;20102;-69
2022/09/28 06:09:41;;;;;;;5.53;1.60;;;6.80;99.90;;;;;;5074115;28;20033;-69
2022/09/28 06:12:07;;;;;;;4.85;2.22;;;6.60;99.90;;;;;;5073891;28;20044;-68
2022/09/28 06:14:33;;;;;;;2.28;1.60;;;6.50;99.90;;;;;;5038964;28;20048;-69
2022/09/28 06:16:59;;;;;;;9.32;2.22;;;6.40;99.90;;;;;;5055744;28;20052;-69
2022/09/28 06:19:25;;;;;;;7.15;1.52;;;6.40;99.90;;;;;;5039096;28;20507;-69
2022/09/28 06:21:50;;;;;;;6.55;1.60;;;6.30;99.90;;;;;;5073877;28;20124;-68
2022/09/28 06:24:16;;;;;;;3.17;1.75;;;6.30;99.90;;;;;;5073708;28;20072;-67
2022/09/28 06:26:41;;;;;;;3.80;1.27;;;6.30;99.90;;;;;;5073835;28;20464;-68
2022/09/28 06:29:07;;;;;;;11.15;1.85;;;6.70;99.90;;;;;;5073752;28;20074;-67
2022/09/28 06:31:33;;;;;;;3.25;1.92;;;6.30;99.90;;;;;;5073840;28;20485;-67
2022/09/28 06:34:00;;;;;;;2.15;1.63;;;6.30;99.90;;;;;;5055419;28;20041;-67
2022/09/28 06:36:28;;;;;;;3.65;1.95;;;6.30;99.90;;;;;;5022454;28;20115;-68
2022/09/28 06:38:53;;;;;;;22.33;2.47;;;6.40;99.90;;;;;;5073524;28;20056;-68
2022/09/28 06:41:20;;;;;;;5.75;1.95;;;6.30;99.90;;;;;;5073217;28;20433;-68
2022/09/28 06:43:47;;;;;;;2.28;1.88;;;6.60;99.90;;;;;;5073242;28;20052;-68
2022/09/28 06:46:13;;;;;;;5.55;1.67;;;6.40;99.90;;;;;;5055182;28;20044;-68
2022/09/28 06:48:39;;;;;;;5.55;1.80;;;6.40;99.90;;;;;;5072823;28;20044;-68
2022/09/28 06:51:05;;;;;;;3.55;2.00;;;6.40;99.90;;;;;;5055206;28;20080;-68
2022/09/28 06:53:31;;;;;;;4.78;2.30;;;6.40;99.90;;;;;;5073164;28;20082;-68
2022/09/28 06:55:58;;;;;;;4.50;2.33;;;6.30;99.90;;;;;;5073263;28;20037;-68
2022/09/28 06:58:26;;;;;;;4.68;2.22;;;6.50;99.90;;;;;;5054978;28;20079;-68
2022/09/28 07:00:52;;;;;;;4.25;2.22;;;6.50;99.90;;;;;;5072996;28;20063;-68
2022/09/28 07:03:20;;;;;;;3.35;1.75;;;6.60;99.90;;;;;;5072836;28;20040;-70
2022/09/28 07:05:49;;;;;;;7.85;1.90;;;6.60;99.90;;;;;;5072581;28;20040;-68
2022/09/28 07:08:16;;;;;;;11.25;2.47;;;6.60;99.90;;;;;;5072784;28;20044;-68
2022/09/28 07:10:47;;;;;;;4.15;1.92;;;6.60;99.90;;;;;;5072797;28;20373;-67
2022/09/28 07:13:15;;;;;;;7.95;2.30;;;6.70;99.90;;;;;;5054379;28;20133;-68
2022/09/28 07:15:42;;;;;;;3.58;2.42;;;6.60;99.90;;;;;;5072253;28;20061;-68
2022/09/28 07:18:09;;;;;;;3.90;2.45;;;6.70;99.90;;;;;;5072235;28;20047;-68
2022/09/28 07:20:36;;;;;;;2.17;1.55;;;6.70;99.90;;;;;;5072603;28;20036;-68
2022/09/28 07:23:04;;;;;;;2.90;2.10;;;6.70;99.90;;;;;;5054517;28;20036;-68
2022/09/28 07:25:31;;;;;;;4.32;2.67;;;6.70;99.90;;;;;;5072561;28;20028;-69
2022/09/28 07:28:01;;;;;;;4.43;2.22;;;6.60;99.90;;;;;;5054537;28;20040;-68
2022/09/28 07:30:31;;;;;;;4.22;2.63;;;6.80;99.90;;;;;;5072455;28;20068;-68
2022/09/28 07:33:00;;;;;;;4.82;2.22;;;6.90;99.90;;;;;;5072277;28;20037;-70
2022/09/28 07:35:26;;;;;;;5.72;2.10;;;6.70;99.90;;;;;;5072294;28;20541;-68
2022/09/28 07:38:06;;;;;;;3.70;2.10;;;7.60;99.90;;;;;;5072359;28;20064;-70
2022/09/28 07:43:21;;;;;;;2.90;2.00;;;7.10;99.90;;;;;;5054117;28;20060;-68
2022/09/28 07:45:49;;;;;;;6.93;2.60;;;7.50;99.90;;;;;;5072342;28;20040;-68
2022/09/28 07:48:15;;;;;;;16.27;2.70;;;;;;;;;;5072229;28;20036;-68
2022/09/28 07:50:42;;;;;;;3.47;1.90;;;;;;;;;;5072072;28;20037;-68
2022/09/28 07:53:08;;;;;;;6.97;2.38;;;;;;;;;;5072147;28;20049;-69
2022/09/28 07:55:34;;;;;;;3.20;2.20;;;;;;;;;;5054042;28;20448;-69
2022/09/28 07:58:00;;;;;;;3.83;2.28;;;;;;;;;;5072149;28;20557;-69
2022/09/28 08:00:33;;;;;;;8.73;2.03;;;;;;;;;;5071252;28;20391;-68
2022/09/28 08:02:59;;;;;;;3.85;2.05;;;;;;;;;;5072223;28;20396;-68
2022/09/28 08:05:29;;;;;;;8.88;2.22;;;;;;;;;;5071882;28;20121;-68
2022/09/28 08:07:57;;;;;;;11.38;2.17;;;;;;;;;;5072134;28;20040;-68
2022/09/28 08:10:24;;;;;;;7.38;2.10;;;;;;;;;;5072049;28;20396;-68
2022/09/28 08:12:53;;;;;;;4.05;2.10;;;;;;;;;;5071791;28;20044;-68
2022/09/28 08:15:20;;;;;;;4.57;2.28;;;;;;;;;;5071583;28;20086;-68
2022/09/28 08:17:47;;;;;;;4.88;1.63;;;;;;;;;;5054158;28;20037;-68
2022/09/28 08:23:07;;;;;;;3.63;1.75;;;;;;;;;;5072015;28;20047;-68
2022/09/28 08:25:37;;;;;;;7.72;1.80;;;;;;;;;;5071978;28;20067;-68
2022/09/28 08:28:03;;;;;;;2.75;1.75;;;;;;;;;;5071876;28;20111;-68
2022/09/28 08:30:30;;;;;;;4.85;1.80;;;;;;;;;;5071544;28;20036;-68
2022/09/28 08:32:56;;;;;;;3.72;2.10;;;;;;;;;;5071835;28;20052;-68
2022/09/28 08:35:25;;;;;;;4.40;1.95;;;;;;;;;;5071547;28;20037;-68
2022/09/28 08:37:53;;;;;;;3.08;1.80;;;;;;;;;;5071927;28;20040;-68
2022/09/28 08:40:23;;;;;;;3.05;2.10;;;;;;;;;;5071567;28;20045;-68
2022/09/28 08:42:53;;;;;;;3.15;1.80;;;;;;;;;;5071454;28;20051;-68
2022/09/28 08:45:21;;;;;;;5.68;2.22;;;;;;;;;;5071540;28;20044;-68
2022/09/28 08:50:40;;;;;;;3.00;1.75;;;;;;;;;;5071804;28;20131;-68
2022/09/28 08:53:19;;;;;;;2.75;1.27;;;;;;;;;;5053600;28;20063;-68
2022/09/28 08:55:46;;;;;;;4.07;1.98;;;;;;;;;;5071672;28;20048;-68
2022/09/28 08:58:13;;;;;;;8.30;2.17;;;;;;;;;;5053392;28;20033;-68
2022/09/28 09:00:49;;;;;;;3.25;2.03;;;;;;;;;;5053248;28;20044;-68
2022/09/28 09:03:17;;;;;;;3.47;2.00;;;;;;;;;;5071342;28;20080;-68
2022/09/28 09:06:22;;;;;;;2.97;1.98;;;9.00;99.90;;;;;;5053350;28;20135;-68
2022/09/28 09:08:51;;;;;;;3.63;2.03;;;9.00;99.90;;;;;;4999478;28;20056;-68
2022/09/28 09:11:38;;;;;;;4.32;2.30;;;9.20;99.90;;;;;;5072064;28;20036;-68
2022/09/28 09:14:33;;;;;;;3.97;2.00;;;9.30;99.90;;;;;;5074551;28;20139;-68
2022/09/28 09:17:12;;;;;;;4.88;2.28;;;9.30;99.90;;;;;;5074760;28;20105;-68
2022/09/28 09:19:54;;;;;;;4.38;2.30;;;9.30;99.90;;;;;;5056836;28;20049;-68
2022/09/28 09:23:05;;;;;;;3.92;2.08;;;9.50;99.90;;;;;;5074616;28;20044;-68
2022/09/28 09:25:41;;;;;;;4.18;2.60;;;9.60;99.90;;;;;;5035741;28;20484;-68
2022/09/28 09:28:06;;;;;;;3.70;2.10;;;9.80;99.90;;;;;;5074525;28;20059;-68
2022/09/28 09:30:54;;;;;;;6.22;2.58;;;9.90;99.90;;;;;;5074756;28;20049;-68
2022/09/28 09:33:34;;;;;;;4.32;2.35;;;10.10;99.90;;;;;;5074379;28;20179;-68
2022/09/28 09:36:18;;;;;;;4.50;1.70;;;10.00;99.90;;;;;;5056493;28;20201;-68
2022/09/28 09:38:58;;;;;;;3.78;2.00;;;9.90;99.90;;;;;;5074699;28;20040;-68
2022/09/28 09:41:39;;;;;;;3.55;2.03;;;9.90;99.90;;;;;;5074582;28;20103;-68
2022/09/28 09:44:51;;;;;;;3.75;1.92;;;9.80;99.90;;;;;;5074459;28;20400;-68
2022/09/28 09:47:34;;;;;;;4.55;2.15;;;9.90;99.90;;;;;;5072905;28;20052;-68
2022/09/28 09:50:28;;;;;;;4.30;1.92;;;10.00;99.90;;;;;;5056756;28;20062;-68
2022/09/28 09:53:22;;;;;;;5.28;2.40;;;10.10;99.90;;;;;;5035432;28;20048;-68
2022/09/28 09:55:56;;;;;;;8.30;2.67;;;10.30;99.90;;;;;;5074481;28;20068;-68
2022/09/28 09:58:35;;;;;;;4.20;2.22;;;10.30;99.90;;;;;;5056377;28;20486;-70
2022/09/28 10:01:07;;;;;;;5.72;2.30;;;10.50;99.90;;;;;;5073988;28;20119;-69
2022/09/28 10:03:38;;;;;;;3.90;2.55;;;10.70;99.90;;;;;;5074339;28;20048;-69
2022/09/28 10:06:26;;;;;;;;;;;10.90;99.90;;;;;;5074618;28;20098;-68
2022/09/28 10:09:00;;;;;;;4.65;2.28;;;11.10;99.90;;;;;;5055943;28;19917;-69
2022/09/28 10:11:30;;;;;;;4.47;2.33;;;11.00;99.90;;;;;;5074187;28;20036;-69
2022/09/28 10:13:56;;;;;;;4.20;2.45;;;11.00;99.90;;;;;;5055555;28;20095;-69
2022/09/28 10:16:23;;;;;;;4.90;2.40;;;11.10;99.90;;;;;;5073778;28;20048;-69
2022/09/28 10:18:48;;;;;;;4.45;2.42;;;11.10;99.90;;;;;;5073600;28;20039;-68
2022/09/28 10:21:16;;;;;;;4.20;1.95;;;11.80;99.90;;;;;;5073735;28;20041;-68
2022/09/28 10:23:43;;;;;;;2.92;2.00;;;11.00;99.90;;;;;;5054596;28;20040;-69
2022/09/28 10:26:14;;;;;;;3.97;2.13;;;11.00;99.90;;;;;;5073497;28;20097;-68
2022/09/28 10:28:49;;;;;;;;;;;11.10;99.90;;;;;;5074185;28;20471;-69
2022/09/28 10:31:44;;;;;;;4.38;2.10;;;11.10;99.90;;;;;;5073821;28;19978;-69
2022/09/28 10:34:15;;;;;;;4.00;1.98;;;11.30;99.90;;;;;;5055460;28;20107;-70
2022/09/28 10:36:58;;;;;;;3.72;1.95;;;11.50;99.90;;;;;;5073755;28;20040;-69
2022/09/28 10:39:45;;;;;;;4.55;2.00;;;11.60;99.90;;;;;;5073414;28;20082;-69
2022/09/28 10:42:16;;;;;;;2.92;1.65;;;11.70;99.90;;;;;;5055426;28;20055;-68
2022/09/28 10:44:48;;;;;;;2.75;1.60;;;11.80;99.90;;;;;;5073591;28;20067;-68
2022/09/28 10:47:18;;;;;;;3.03;1.60;;;11.70;99.90;;;;;;5073321;28;20174;-68
2022/09/28 10:49:47;;;;;;;4.03;1.83;;;11.60;99.90;;;;;;5073496;28;20072;-69
2022/09/28 10:52:36;;;;;;;2.45;1.48;;;11.80;99.90;;;;;;5073403;28;20044;-68
2022/09/28 10:55:20;;;;;;;3.45;1.77;;;11.90;99.90;;;;;;5055231;28;20072;-68
2022/09/28 10:57:49;;;;;;;5.35;2.10;;;12.00;99.90;;;;;;5073378;28;20090;-68
2022/09/28 11:00:51;;;;;;;3.10;1.42;;;12.20;99.90;;;;;;5055375;28;20045;-68
2022/09/28 11:03:24;;;;;;;7.72;1.92;;;12.00;99.90;;;;;;5055348;28;20051;-69
2022/09/28 11:06:01;;;;;;;4.13;1.67;;;11.90;99.90;;;;;;5073170;28;20076;-69
2022/09/28 11:08:36;;;;;;;2.47;1.30;;;11.90;99.90;;;;;;5073102;28;20037;-68
2022/09/28 11:11:13;;;;;;;1.75;1.10;;;11.90;99.90;;;;;;5072708;28;20545;-71
2022/09/28 11:13:49;;;;;;;2.30;1.02;;;12.00;99.90;;;;;;5072244;28;20257;-69
2022/09/28 11:16:25;;;;;;;2.55;1.35;;;12.20;99.90;;;;;;5054794;28;20044;-70
2022/09/28 11:18:51;;;;;;;2.13;1.20;;;12.30;99.90;;;;;;5072898;28;20040;-70
2022/09/28 11:21:28;;;;;;;1.95;1.08;;;12.50;99.90;;;;;;5054564;28;20036;-69
2022/09/28 11:24:04;;;;;;;1.85;1.10;;;12.60;99.90;;;;;;5072839;28;20032;-70
2022/09/28 11:26:48;;;;;;;1.58;1.08;;;12.70;99.90;;;;;;5072471;28;20036;-70
2022/09/28 11:29:29;;;;;;;2.33;1.27;;;12.80;99.90;;;;;;5072479;28;20068;-70
2022/09/28 11:32:00;;;;;;;4.05;1.42;;;12.70;99.90;;;;;;5072276;28;20086;-70
2022/09/28 11:34:34;;;;;;;1.90;1.17;;;12.50;99.90;;;;;;5037705;28;20482;-70
2022/09/28 11:37:12;;;;;;;2.67;1.15;;;12.50;99.90;;;;;;5072620;28;20128;-70
2022/09/28 11:39:59;;;;;;;1.60;1.20;;;12.40;99.90;;;;;;5072166;28;20048;-70
2022/09/28 11:42:34;;;;;;;3.40;1.20;;;12.40;99.90;;;;;;5054121;28;20048;-71
2022/09/28 11:45:11;;;;;;;3.70;1.58;;;12.30;99.90;;;;;;5072418;28;20087;-71
2022/09/28 11:47:56;;;;;;;2.33;1.30;;;12.30;99.90;;;;;;5054312;28;20044;-70
2022/09/28 11:50:30;;;;;;;1.13;0.93;;;12.30;99.90;;;;;;5054204;28;20044;-70
2022/09/28 11:53:12;;;;;;;2.08;0.90;;;12.40;99.90;;;;;;5054124;28;20048;-71
2022/09/28 11:55:49;;;;;;;2.35;1.35;;;12.50;99.90;;;;;;5072271;28;20044;-70
2022/09/28 11:58:33;;;;;;;2.55;1.38;;;12.50;99.90;;;;;;5071982;28;20043;-70
2022/09/28 12:01:19;;;;;;;2.78;1.45;;;12.50;99.90;;;;;;5072005;28;20044;-70
2022/09/28 12:03:58;;;;;;;3.08;1.35;;;12.50;99.90;;;;;;5054012;28;20045;-70
2022/09/28 12:06:36;;;;;;;2.63;1.35;;;12.50;99.90;;;;;;5072268;28;20048;-70
2022/09/28 12:09:15;;;;;;;3.15;0.93;;;12.50;99.90;;;;;;5071934;28;20036;-70
2022/09/28 12:11:47;;;;;;;1.77;1.10;;;12.50;99.90;;;;;;5054161;28;20475;-70
2022/09/28 12:14:33;;;;;;;4.40;1.73;;;12.50;99.90;;;;;;5071795;28;20415;-70
2022/09/28 12:17:24;;;;;;;2.60;1.45;;;12.50;99.90;;;;;;5053874;28;20041;-70
2022/09/28 12:19:59;;;;;;;2.35;1.20;;;12.40;99.90;;;;;;5071757;28;20047;-71
2022/09/28 12:22:39;;;;;;;1.85;0.90;;;12.40;99.90;;;;;;5071949;28;20037;-71
2022/09/28 12:25:12;;;;;;;1.67;1.13;;;12.40;99.90;;;;;;5054026;28;20448;-69
2022/09/28 12:27:44;;;;;;;1.80;1.05;;;12.60;99.90;;;;;;5072077;28;20797;-69
2022/09/28 12:30:21;;;;;;;1.75;1.20;;;12.80;99.90;;;;;;5071628;28;20078;-70
2022/09/28 12:33:14;;;;;;;2.90;1.15;;;12.90;99.90;;;;;;5071953;28;20066;-70
2022/09/28 12:35:39;;;;;;;1.73;1.10;;;13.10;99.90;;;;;;5053645;28;20056;-70
2022/09/28 12:38:34;;;;;;;1.50;1.10;;;13.20;99.90;;;;;;5071843;28;20063;-70
2022/09/28 12:41:09;;;;;;;4.45;1.05;;;13.30;99.90;;;;;;5071854;28;20119;-70
2022/09/28 12:43:53;;;;;;;2.38;1.40;;;13.20;99.90;;;;;;5071783;28;20037;-69
2022/09/28 12:46:47;;;;;;;2.10;0.90;;;13.30;99.90;;;;;;5072464;28;20547;-70
2022/09/28 12:49:28;;;;;;;0.80;0.65;;;13.30;99.90;;;;;;5075481;28;20074;-68
2022/09/28 12:52:24;;;;;;;2.38;1.05;;;13.30;99.90;;;;;;5075759;28;20036;-70
2022/09/28 12:55:07;;;;;;;2.08;0.82;;;13.30;99.90;;;;;;5057447;28;20518;-69
2022/09/28 12:57:38;;;;;;;1.63;0.90;;;13.20;99.90;;;;;;5075610;28;20044;-69
2022/09/28 13:00:23;;;;;;;0.88;0.52;;;13.30;99.90;;;;;;5075579;28;20036;-70
2022/09/28 13:03:14;;;;;;;0.95;0.75;;;13.30;99.90;;;;;;5075474;28;20040;-69
2022/09/28 13:05:39;;;;;;;1.93;1.03;;;13.30;99.90;;;;;;5075420;28;20086;-70
2022/09/28 13:08:36;;;;;;;1.10;0.80;;;13.20;99.90;;;;;;5075387;28;20303;-70
2022/09/28 13:11:23;;;;;;;1.13;0.68;;;13.20;99.90;;;;;;5075091;28;20047;-70
2022/09/28 13:14:17;;;;;;;1.92;0.65;;;13.10;99.90;;;;;;5074781;28;20049;-70
2022/09/28 13:17:01;;;;;;;0.95;0.80;;;13.10;99.90;;;;;;5038540;28;20091;-69
2022/09/28 13:19:40;;;;;;;1.40;0.85;;;13.10;99.90;;;;;;5075213;28;20040;-70
2022/09/28 13:22:28;;;;;;;2.25;1.20;;;13.10;99.90;;;;;;5056955;28;20055;-69
2022/09/28 13:24:58;;;;;;;1.45;0.82;;;13.00;99.90;;;;;;5057132;28;20043;-69
2022/09/28 13:27:41;;;;;;;1.70;0.77;;;13.00;99.90;;;;;;5074713;28;20127;-70
2022/09/28 13:30:12;;;;;;;1.02;0.82;;;13.00;99.90;;;;;;5056943;28;20182;-69
2022/09/28 13:32:38;;;;;;;2.30;0.60;;;13.10;99.90;;;;;;5074974;28;20562;-69
2022/09/28 13:35:05;;;;;;;1.15;0.80;;;13.20;99.90;;;;;;5074801;28;20230;-69
2022/09/28 13:37:33;;;;;;;0.88;0.60;;;13.20;99.90;;;;;;5074851;28;20458;-70
2022/09/28 13:40:04;;;;;;;2.55;0.80;;;13.30;99.90;;;;;;5056580;28;20037;-69
2022/09/28 13:42:40;;;;;;;3.47;0.75;;;13.30;99.90;;;;;;5074541;28;20127;-70
2022/09/28 13:45:12;;;;;;;4.03;0.88;;;14.00;99.90;;;;;;5074401;28;20045;-69
2022/09/28 13:47:50;;;;;;;1.38;0.82;;;13.20;99.90;;;;;;5074450;28;20048;-69
2022/09/28 13:50:25;;;;;;;2.75;0.90;;;13.10;99.90;;;;;;5056620;28;20044;-69
2022/09/28 13:53:35;;;;;;;1.00;0.57;;;13.00;99.90;;;;;;5074661;28;20521;-70
2022/09/28 13:56:24;;;;;;;1.50;0.93;;;13.00;99.90;;;;;;5074274;28;20052;-71